Rayne, LA (70578)

1:31 AM CDT on July 24, 2016 (GMT -0500)
Oaktree Lane | | Change Station

Elev 28 ft 30.27 °N, 92.26 °W | Updated 2 seconds ago

Clear
Clear
80.5 °F
Feels Like 78 °F
N
0.0
Wind Variable Wind from WSW
Gusts 0.0 mph

Today
High -- | Low -- °F
--% Chance of Precip.
Yesterday
High -- | Low -- °F
Precip. -- in
Pressure 29.95 in
Visibility 10.0 miles
Clouds Clear
Heat Index 78 °F
Dew Point Not available.
Humidity Not available.
Rainfall 0.00 in
Snow Depth Not available.
6:23 AM 8:07 PM
Waning Gibbous, 79% visible
METAR KLFT 240553Z AUTO 21004KT 10SM CLR 28/25 A2995 RMK AO2 SLP141 T02780250 10322 20278 403440256 58004 $
Pressure 29.95 in
Visibility 10.0 miles
Clouds Clear
Heat Index 78 °F
Dew Point Not available.
Humidity Not available.
Rainfall 0.00 in
Snow Depth Not available.
6:23 AM 8:07 PM
Waning Gibbous, 79% visible
METAR KLFT 240553Z AUTO 21004KT 10SM CLR 28/25 A2995 RMK AO2 SLP141 T02780250 10322 20278 403440256 58004 $

10-Day Weather Forecast

Almanac

Astronomy

Jul. 24, 2016 Rise Set
Actual Time
Civil Twilight
Nautical Twilight
Astronomical Twilight
Moon
Length of Visible Light
Length of Day
Tomorrow will be .
, % of the Moon is Illuminated

Today's Extremes

State Highs State Lows

Community

WunderPhotos

Upload Photos

1,927,038 photos uploaded!

WunderBlog® & News

Nearby

Air Quality

  Air Quality AQ Index Pollutant
Not available.

Snow Depth

Station Depth Elevation

Earthquake Activity

City Distance Mag. Time & Date
Minimum magnitude displayed is 2.5.

Coastal Water Temperatures

Place Temperature

Stations

Nearby Weather Stations

Station Location Temp. Windchill Dew Point Humidity Wind Precip. Elev Updated Type
                   

Watches & Warnings

There are currently no watches in effect.